sensor_id;sensor_type;location;lat;lon;timestamp;pressure;altitude;pressure_sealevel;temperature;humidity
42591;BME280;28218;53.342;-6.216;2023-02-15T00:01:12;101864.56;;;9.94;100.00
42591;BME280;28218;53.342;-6.216;2023-02-15T00:03:41;101855.25;;;9.90;100.00
42591;BME280;28218;53.342;-6.216;2023-02-15T00:06:10;101841.41;;;9.88;100.00
42591;BME280;28218;53.342;-6.216;2023-02-15T00:08:38;101853.72;;;9.88;100.00
42591;BME280;28218;53.342;-6.216;2023-02-15T00:11:08;101845.13;;;9.86;100.00
42591;BME280;28218;53.342;-6.216;2023-02-15T00:13:36;101850.41;;;9.86;100.00
42591;BME280;28218;53.342;-6.216;2023-02-15T00:16:07;101841.66;;;9.85;100.00
42591;BME280;28218;53.342;-6.216;2023-02-15T00:18:35;101839.72;;;9.87;100.00
42591;BME280;28218;53.342;-6.216;2023-02-15T00:21:06;101843.19;;;9.88;100.00
42591;BME280;28218;53.342;-6.216;2023-02-15T00:23:34;101841.41;;;9.88;100.00
42591;BME280;28218;53.342;-6.216;2023-02-15T00:26:05;101820.34;;;9.88;100.00
42591;BME280;28218;53.342;-6.216;2023-02-15T00:28:33;101814.38;;;9.86;100.00
42591;BME280;28218;53.342;-6.216;2023-02-15T00:31:05;101816.31;;;9.84;100.00
42591;BME280;28218;53.342;-6.216;2023-02-15T00:33:34;101814.63;;;9.83;100.00
42591;BME280;28218;53.342;-6.216;2023-02-15T00:36:06;101804.53;;;9.79;100.00
42591;BME280;28218;53.342;-6.216;2023-02-15T00:38:34;101805.22;;;9.81;100.00
42591;BME280;28218;53.342;-6.216;2023-02-15T00:41:04;101800.94;;;9.80;100.00
42591;BME280;28218;53.342;-6.216;2023-02-15T00:43:33;101800.78;;;9.81;100.00
42591;BME280;28218;53.342;-6.216;2023-02-15T00:46:02;101806.63;;;9.85;100.00
42591;BME280;28218;53.342;-6.216;2023-02-15T00:48:31;101790.00;;;9.84;100.00
42591;BME280;28218;53.342;-6.216;2023-02-15T00:51:00;101790.81;;;9.85;100.00
42591;BME280;28218;53.342;-6.216;2023-02-15T00:53:30;101778.34;;;9.87;100.00
42591;BME280;28218;53.342;-6.216;2023-02-15T00:55:59;101772.25;;;9.86;100.00
42591;BME280;28218;53.342;-6.216;2023-02-15T00:58:28;101769.88;;;9.83;100.00
42591;BME280;28218;53.342;-6.216;2023-02-15T01:01:03;101769.06;;;9.83;100.00
42591;BME280;28218;53.342;-6.216;2023-02-15T01:03:32;101764.63;;;9.83;100.00
42591;BME280;28218;53.342;-6.216;2023-02-15T01:06:01;101758.09;;;9.87;100.00
42591;BME280;28218;53.342;-6.216;2023-02-15T01:08:31;101756.72;;;9.83;100.00
42591;BME280;28218;53.342;-6.216;2023-02-15T01:11:03;101755.78;;;9.84;100.00
42591;BME280;28218;53.342;-6.216;2023-02-15T01:13:32;101760.75;;;9.87;100.00
42591;BME280;28218;53.342;-6.216;2023-02-15T01:16:01;101748.56;;;9.86;100.00
42591;BME280;28218;53.342;-6.216;2023-02-15T01:18:31;101750.94;;;9.89;100.00
42591;BME280;28218;53.342;-6.216;2023-02-15T01:20:59;101746.22;;;9.93;100.00
42591;BME280;28218;53.342;-6.216;2023-02-15T01:23:27;101750.22;;;9.97;100.00
42591;BME280;28218;53.342;-6.216;2023-02-15T01:26:01;101752.72;;;9.98;100.00
42591;BME280;28218;53.342;-6.216;2023-02-15T01:28:31;101750.78;;;10.01;100.00
42591;BME280;28218;53.342;-6.216;2023-02-15T01:30:59;101742.03;;;10.00;100.00
42591;BME280;28218;53.342;-6.216;2023-02-15T01:33:27;101730.53;;;10.01;100.00
42591;BME280;28218;53.342;-6.216;2023-02-15T01:35:56;101721.97;;;9.99;100.00
42591;BME280;28218;53.342;-6.216;2023-02-15T01:38:25;101731.66;;;9.98;100.00
42591;BME280;28218;53.342;-6.216;2023-02-15T01:40:54;101722.22;;;9.96;100.00
42591;BME280;28218;53.342;-6.216;2023-02-15T01:43:46;101715.56;;;9.92;100.00
42591;BME280;28218;53.342;-6.216;2023-02-15T01:46:16;101705.88;;;9.92;100.00
42591;BME280;28218;53.342;-6.216;2023-02-15T01:48:47;101697.44;;;9.89;100.00
42591;BME280;28218;53.342;-6.216;2023-02-15T01:51:17;101693.69;;;9.82;100.00
42591;BME280;28218;53.342;-6.216;2023-02-15T01:53:51;101689.00;;;9.85;100.00
42591;BME280;28218;53.342;-6.216;2023-02-15T01:56:23;101679.56;;;9.83;100.00
42591;BME280;28218;53.342;-6.216;2023-02-15T01:58:55;101676.09;;;9.82;100.00
42591;BME280;28218;53.342;-6.216;2023-02-15T02:01:26;101667.38;;;9.82;100.00
42591;BME280;28218;53.342;-6.216;2023-02-15T02:03:59;101654.22;;;9.82;100.00
42591;BME280;28218;53.342;-6.216;2023-02-15T02:06:30;101640.06;;;9.83;100.00
42591;BME280;28218;53.342;-6.216;2023-02-15T02:09:00;101630.81;;;9.79;100.00
42591;BME280;28218;53.342;-6.216;2023-02-15T02:11:28;101645.09;;;9.76;100.00
42591;BME280;28218;53.342;-6.216;2023-02-15T02:13:58;101625.69;;;9.77;100.00
42591;BME280;28218;53.342;-6.216;2023-02-15T02:16:30;101628.88;;;9.81;100.00
42591;BME280;28218;53.342;-6.216;2023-02-15T02:19:27;101630.38;;;9.83;100.00
42591;BME280;28218;53.342;-6.216;2023-02-15T02:22:13;101630.25;;;9.85;100.00
42591;BME280;28218;53.342;-6.216;2023-02-15T02:25:12;101622.63;;;9.82;100.00
42591;BME280;28218;53.342;-6.216;2023-02-15T02:27:55;101621.66;;;9.83;100.00
42591;BME280;28218;53.342;-6.216;2023-02-15T02:30:51;101621.66;;;9.83;100.00
42591;BME280;28218;53.342;-6.216;2023-02-15T02:33:43;101614.72;;;9.82;100.00
42591;BME280;28218;53.342;-6.216;2023-02-15T02:36:21;101620.00;;;9.82;100.00
42591;BME280;28218;53.342;-6.216;2023-02-15T02:39:02;101617.22;;;9.83;100.00
42591;BME280;28218;53.342;-6.216;2023-02-15T02:41:38;101613.06;;;9.81;100.00
42591;BME280;28218;53.342;-6.216;2023-02-15T02:44:13;101603.38;;;9.81;100.00
42591;BME280;28218;53.342;-6.216;2023-02-15T02:46:50;101586.06;;;9.79;100.00
42591;BME280;28218;53.342;-6.216;2023-02-15T02:49:33;101567.09;;;9.75;100.00
42591;BME280;28218;53.342;-6.216;2023-02-15T02:52:03;101563.66;;;9.75;100.00
42591;BME280;28218;53.342;-6.216;2023-02-15T02:54:33;101571.38;;;9.76;100.00
42591;BME280;28218;53.342;-6.216;2023-02-15T02:57:05;101574.84;;;9.77;100.00
42591;BME280;28218;53.342;-6.216;2023-02-15T02:59:39;101568.75;;;9.76;100.00
42591;BME280;28218;53.342;-6.216;2023-02-15T03:02:13;101579.69;;;9.81;100.00
42591;BME280;28218;53.342;-6.216;2023-02-15T03:04:48;101564.88;;;9.80;100.00
42591;BME280;28218;53.342;-6.216;2023-02-15T03:07:26;101557.66;;;9.82;100.00
42591;BME280;28218;53.342;-6.216;2023-02-15T03:09:58;101557.66;;;9.82;100.00
42591;BME280;28218;53.342;-6.216;2023-02-15T03:12:28;101553.22;;;9.83;100.00
42591;BME280;28218;53.342;-6.216;2023-02-15T03:15:01;101538.69;;;9.79;100.00
42591;BME280;28218;53.342;-6.216;2023-02-15T03:17:32;101539.53;;;9.79;100.00
42591;BME280;28218;53.342;-6.216;2023-02-15T03:20:08;101532.47;;;9.80;100.00
42591;BME280;28218;53.342;-6.216;2023-02-15T03:22:41;101540.47;;;9.78;100.00
42591;BME280;28218;53.342;-6.216;2023-02-15T03:25:13;101522.75;;;9.80;100.00
42591;BME280;28218;53.342;-6.216;2023-02-15T03:27:45;101515.69;;;9.81;100.00
42591;BME280;28218;53.342;-6.216;2023-02-15T03:32:47;101505.97;;;9.81;100.00
42591;BME280;28218;53.342;-6.216;2023-02-15T03:35:19;101511.91;;;9.83;100.00
42591;BME280;28218;53.342;-6.216;2023-02-15T03:37:53;101507.50;;;9.84;100.00
42591;BME280;28218;53.342;-6.216;2023-02-15T03:40:26;101495.84;;;9.86;100.00
42591;BME280;28218;53.342;-6.216;2023-02-15T03:43:17;101490.97;;;9.91;100.00
42591;BME280;28218;53.342;-6.216;2023-02-15T03:45:51;101485.44;;;9.94;100.00
42591;BME280;28218;53.342;-6.216;2023-02-15T03:48:26;101487.91;;;9.96;100.00
42591;BME280;28218;53.342;-6.216;2023-02-15T03:51:01;101482.38;;;9.99;100.00
42591;BME280;28218;53.342;-6.216;2023-02-15T03:53:49;101476.28;;;9.98;100.00
42591;BME280;28218;53.342;-6.216;2023-02-15T03:56:18;101481.22;;;10.02;100.00
42591;BME280;28218;53.342;-6.216;2023-02-15T03:58:47;101469.22;;;9.99;100.00
42591;BME280;28218;53.342;-6.216;2023-02-15T04:01:35;101463.13;;;9.98;100.00
42591;BME280;28218;53.342;-6.216;2023-02-15T04:04:25;101479.47;;;10.02;100.00
42591;BME280;28218;53.342;-6.216;2023-02-15T04:06:56;101484.94;;;10.09;100.00
42591;BME280;28218;53.342;-6.216;2023-02-15T04:09:24;101485.78;;;10.09;100.00
42591;BME280;28218;53.342;-6.216;2023-02-15T04:12:09;101484.13;;;10.08;100.00
42591;BME280;28218;53.342;-6.216;2023-02-15T04:14:38;101483.00;;;10.11;100.00
42591;BME280;28218;53.342;-6.216;2023-02-15T04:17:23;101480.34;;;10.11;100.00
42591;BME280;28218;53.342;-6.216;2023-02-15T04:19:51;101483.00;;;10.11;100.00
42591;BME280;28218;53.342;-6.216;2023-02-15T04:22:39;101476.47;;;10.15;100.00
42591;BME280;28218;53.342;-6.216;2023-02-15T04:25:24;101479.09;;;10.15;100.00
42591;BME280;28218;53.342;-6.216;2023-02-15T04:27:53;101477.81;;;10.19;100.00
42591;BME280;28218;53.342;-6.216;2023-02-15T04:30:24;101465.47;;;10.19;100.00
42591;BME280;28218;53.342;-6.216;2023-02-15T04:32:53;101456.09;;;10.17;100.00
42591;BME280;28218;53.342;-6.216;2023-02-15T04:35:23;101450.50;;;10.20;100.00
42591;BME280;28218;53.342;-6.216;2023-02-15T04:37:53;101455.50;;;10.23;100.00
42591;BME280;28218;53.342;-6.216;2023-02-15T04:40:22;101450.91;;;10.25;100.00
42591;BME280;28218;53.342;-6.216;2023-02-15T04:42:50;101449.66;;;10.29;100.00
42591;BME280;28218;53.342;-6.216;2023-02-15T04:45:19;101453.94;;;10.30;100.00
42591;BME280;28218;53.342;-6.216;2023-02-15T04:47:47;101457.44;;;10.31;100.00
42591;BME280;28218;53.342;-6.216;2023-02-15T04:50:16;101446.56;;;10.34;100.00
42591;BME280;28218;53.342;-6.216;2023-02-15T04:52:44;101441.84;;;10.37;100.00
42591;BME280;28218;53.342;-6.216;2023-02-15T04:55:14;101445.31;;;10.38;100.00
42591;BME280;28218;53.342;-6.216;2023-02-15T04:57:42;101449.31;;;10.42;100.00
42591;BME280;28218;53.342;-6.216;2023-02-15T05:00:11;101439.59;;;10.42;100.00
42591;BME280;28218;53.342;-6.216;2023-02-15T05:02:39;101425.59;;;10.42;100.00
42591;BME280;28218;53.342;-6.216;2023-02-15T05:05:07;101429.22;;;10.41;100.00
42591;BME280;28218;53.342;-6.216;2023-02-15T05:07:39;101421.84;;;10.44;100.00
42591;BME280;28218;53.342;-6.216;2023-02-15T05:10:08;101417.69;;;10.42;100.00
42591;BME280;28218;53.342;-6.216;2023-02-15T05:12:38;101414.06;;;10.43;100.00
42591;BME280;28218;53.342;-6.216;2023-02-15T05:15:07;101414.38;;;10.40;100.00
42591;BME280;28218;53.342;-6.216;2023-02-15T05:17:35;101439.59;;;10.42;100.00
42591;BME280;28218;53.342;-6.216;2023-02-15T05:20:04;101515.00;;;10.43;100.00
42591;BME280;28218;53.342;-6.216;2023-02-15T05:22:33;101521.53;;;10.39;100.00
42591;BME280;28218;53.342;-6.216;2023-02-15T05:25:01;101568.19;;;10.29;100.00
42591;BME280;28218;53.342;-6.216;2023-02-15T05:27:48;101554.34;;;10.17;100.00
42591;BME280;28218;53.342;-6.216;2023-02-15T05:30:42;101547.75;;;10.04;100.00
42591;BME280;28218;53.342;-6.216;2023-02-15T05:33:10;101569.56;;;9.86;100.00
42591;BME280;28218;53.342;-6.216;2023-02-15T05:35:39;101569.84;;;9.73;100.00
42591;BME280;28218;53.342;-6.216;2023-02-15T05:38:07;101563.66;;;9.65;100.00
42591;BME280;28218;53.342;-6.216;2023-02-15T05:40:35;101573.91;;;9.58;100.00
42591;BME280;28218;53.342;-6.216;2023-02-15T05:43:05;101563.41;;;9.48;100.00
42591;BME280;28218;53.342;-6.216;2023-02-15T05:45:33;101565.47;;;9.45;100.00
42591;BME280;28218;53.342;-6.216;2023-02-15T05:48:01;101572.69;;;9.43;100.00
42591;BME280;28218;53.342;-6.216;2023-02-15T05:50:29;101569.91;;;9.44;100.00
42591;BME280;28218;53.342;-6.216;2023-02-15T05:52:57;101567.97;;;9.46;100.00
42591;BME280;28218;53.342;-6.216;2023-02-15T05:55:25;101566.28;;;9.45;100.00
42591;BME280;28218;53.342;-6.216;2023-02-15T05:57:53;101572.69;;;9.43;100.00
42591;BME280;28218;53.342;-6.216;2023-02-15T06:00:24;101569.50;;;9.39;100.00
42591;BME280;28218;53.342;-6.216;2023-02-15T06:02:52;101581.00;;;9.38;100.00
42591;BME280;28218;53.342;-6.216;2023-02-15T06:05:20;101588.88;;;9.38;100.00
42591;BME280;28218;53.342;-6.216;2023-02-15T06:07:48;101580.44;;;9.35;100.00
42591;BME280;28218;53.342;-6.216;2023-02-15T06:10:17;101581.25;;;9.35;100.00
42591;BME280;28218;53.342;-6.216;2023-02-15T06:12:45;101590.13;;;9.34;100.00
42591;BME280;28218;53.342;-6.216;2023-02-15T06:15:13;101588.47;;;9.33;100.00
42591;BME280;28218;53.342;-6.216;2023-02-15T06:17:43;101585.13;;;9.31;100.00
42591;BME280;28218;53.342;-6.216;2023-02-15T06:20:12;101583.47;;;9.30;100.00
42591;BME280;28218;53.342;-6.216;2023-02-15T06:22:40;101568.81;;;9.28;100.00
42591;BME280;28218;53.342;-6.216;2023-02-15T06:25:08;101580.28;;;9.27;100.00
42591;BME280;28218;53.342;-6.216;2023-02-15T06:27:40;101583.78;;;9.27;100.00
42591;BME280;28218;53.342;-6.216;2023-02-15T06:30:10;101592.91;;;9.23;100.00
42591;BME280;28218;53.342;-6.216;2023-02-15T06:32:38;101585.00;;;9.23;100.00
42591;BME280;28218;53.342;-6.216;2023-02-15T06:35:08;101578.38;;;9.19;100.00
42591;BME280;28218;53.342;-6.216;2023-02-15T06:37:37;101577.38;;;9.20;100.00
42591;BME280;28218;53.342;-6.216;2023-02-15T06:40:06;101590.41;;;9.21;100.00
42591;BME280;28218;53.342;-6.216;2023-02-15T06:42:35;101591.50;;;9.19;100.00
42591;BME280;28218;53.342;-6.216;2023-02-15T06:45:03;101583.63;;;9.19;100.00
42591;BME280;28218;53.342;-6.216;2023-02-15T06:47:34;101590.53;;;9.20;100.00
42591;BME280;28218;53.342;-6.216;2023-02-15T06:50:02;101582.50;;;9.21;100.00
42591;BME280;28218;53.342;-6.216;2023-02-15T06:52:35;101594.56;;;9.24;100.00
42591;BME280;28218;53.342;-6.216;2023-02-15T06:55:04;101587.22;;;9.18;100.00
42591;BME280;28218;53.342;-6.216;2023-02-15T06:57:33;101592.75;;;9.15;100.00
42591;BME280;28218;53.342;-6.216;2023-02-15T07:00:01;101591.94;;;9.14;100.00
42591;BME280;28218;53.342;-6.216;2023-02-15T07:02:31;101597.59;;;9.10;100.00
42591;BME280;28218;53.342;-6.216;2023-02-15T07:05:00;101589.28;;;9.05;100.00
42591;BME280;28218;53.342;-6.216;2023-02-15T07:07:28;101592.59;;;9.07;100.00
42591;BME280;28218;53.342;-6.216;2023-02-15T07:09:57;101585.69;;;9.06;100.00
42591;BME280;28218;53.342;-6.216;2023-02-15T07:12:26;101590.25;;;9.04;100.00
42591;BME280;28218;53.342;-6.216;2023-02-15T07:15:10;101580.28;;;8.98;100.00
42591;BME280;28218;53.342;-6.216;2023-02-15T07:17:38;101575.44;;;9.03;100.00
42591;BME280;28218;53.342;-6.216;2023-02-15T07:20:09;101577.38;;;9.01;100.00
42591;BME280;28218;53.342;-6.216;2023-02-15T07:22:38;101579.44;;;8.97;100.00
42591;BME280;28218;53.342;-6.216;2023-02-15T07:25:09;101578.63;;;8.96;100.00
42591;BME280;28218;53.342;-6.216;2023-02-15T07:27:38;101565.31;;;8.98;100.00
42591;BME280;28218;53.342;-6.216;2023-02-15T07:30:08;101575.00;;;8.98;100.00
42591;BME280;28218;53.342;-6.216;2023-02-15T07:32:38;101568.09;;;8.96;100.00
42591;BME280;28218;53.342;-6.216;2023-02-15T07:35:30;101555.78;;;8.97;100.00
42591;BME280;28218;53.342;-6.216;2023-02-15T07:37:59;101545.28;;;8.97;100.00
42591;BME280;28218;53.342;-6.216;2023-02-15T07:40:28;101541.41;;;8.91;100.00
42591;BME280;28218;53.342;-6.216;2023-02-15T07:42:58;101543.06;;;8.92;100.00
42591;BME280;28218;53.342;-6.216;2023-02-15T07:45:26;101535.88;;;8.94;100.00
42591;BME280;28218;53.342;-6.216;2023-02-15T07:47:54;101535.16;;;8.92;100.00
42591;BME280;28218;53.342;-6.216;2023-02-15T07:50:22;101536.56;;;8.96;100.00
42591;BME280;28218;53.342;-6.216;2023-02-15T07:52:51;101527.03;;;8.95;100.00
42591;BME280;28218;53.342;-6.216;2023-02-15T07:55:19;101527.03;;;8.95;100.00
42591;BME280;28218;53.342;-6.216;2023-02-15T07:57:49;101527.84;;;8.96;100.00
42591;BME280;28218;53.342;-6.216;2023-02-15T08:00:20;101518.16;;;8.96;100.00
42591;BME280;28218;53.342;-6.216;2023-02-15T08:02:52;101525.78;;;9.00;100.00
42591;BME280;28218;53.342;-6.216;2023-02-15T08:05:35;101524.97;;;8.99;100.00
42591;BME280;28218;53.342;-6.216;2023-02-15T08:08:04;101530.91;;;9.01;100.00
42591;BME280;28218;53.342;-6.216;2023-02-15T08:10:32;101532.69;;;9.01;100.00
42591;BME280;28218;53.342;-6.216;2023-02-15T08:13:20;101536.84;;;9.03;100.00
42591;BME280;28218;53.342;-6.216;2023-02-15T08:15:49;101534.19;;;9.03;100.00
42591;BME280;28218;53.342;-6.216;2023-02-15T08:18:17;101533.53;;;9.01;100.00
42591;BME280;28218;53.342;-6.216;2023-02-15T08:20:48;101533.25;;;9.04;100.00
42591;BME280;28218;53.342;-6.216;2023-02-15T08:23:17;101535.88;;;9.04;100.00
42591;BME280;28218;53.342;-6.216;2023-02-15T08:25:45;101532.28;;;9.05;100.00
42591;BME280;28218;53.342;-6.216;2023-02-15T08:28:13;101545.28;;;9.07;100.00
42591;BME280;28218;53.342;-6.216;2023-02-15T08:30:42;101551.25;;;9.09;100.00
42591;BME280;28218;53.342;-6.216;2023-02-15T08:33:12;101557.19;;;9.11;100.00
42591;BME280;28218;53.342;-6.216;2023-02-15T08:35:40;101560.78;;;9.10;100.00
42591;BME280;28218;53.342;-6.216;2023-02-15T08:38:08;101563.28;;;9.11;100.00
42591;BME280;28218;53.342;-6.216;2023-02-15T08:40:37;101563.97;;;9.13;100.00
42591;BME280;28218;53.342;-6.216;2023-02-15T08:43:05;101574.34;;;9.15;100.00
42591;BME280;28218;53.342;-6.216;2023-02-15T08:45:34;101582.66;;;9.20;100.00
42591;BME280;28218;53.342;-6.216;2023-02-15T08:48:03;101580.44;;;9.25;100.00
42591;BME280;28218;53.342;-6.216;2023-02-15T08:50:32;101579.34;;;9.28;100.00
42591;BME280;28218;53.342;-6.216;2023-02-15T08:53:00;101581.81;;;9.29;100.00
42591;BME280;28218;53.342;-6.216;2023-02-15T08:55:28;101575.31;;;9.33;100.00
42591;BME280;28218;53.342;-6.216;2023-02-15T08:57:57;101580.16;;;9.38;100.00
42591;BME280;28218;53.342;-6.216;2023-02-15T09:00:25;101593.03;;;9.41;100.00
42591;BME280;28218;53.342;-6.216;2023-02-15T09:02:55;101594.56;;;9.43;100.00
42591;BME280;28218;53.342;-6.216;2023-02-15T09:05:24;101598.84;;;9.44;100.00
42591;BME280;28218;53.342;-6.216;2023-02-15T09:07:52;101592.19;;;9.40;100.00
42591;BME280;28218;53.342;-6.216;2023-02-15T09:10:21;101587.63;;;9.42;100.00
42591;BME280;28218;53.342;-6.216;2023-02-15T09:12:49;101595.38;;;9.44;100.00
42591;BME280;28218;53.342;-6.216;2023-02-15T09:15:17;101600.50;;;9.45;100.00
42591;BME280;28218;53.342;-6.216;2023-02-15T09:17:46;101604.81;;;9.46;100.00
42591;BME280;28218;53.342;-6.216;2023-02-15T09:20:14;101603.53;;;9.41;100.00
42591;BME280;28218;53.342;-6.216;2023-02-15T09:22:43;101601.78;;;9.41;100.00
42591;BME280;28218;53.342;-6.216;2023-02-15T09:25:11;101603.44;;;9.33;100.00
42591;BME280;28218;53.342;-6.216;2023-02-15T09:27:40;101599.00;;;9.33;100.00
42591;BME280;28218;53.342;-6.216;2023-02-15T09:30:10;101607.28;;;9.38;100.00
42591;BME280;28218;53.342;-6.216;2023-02-15T09:32:39;101611.16;;;9.44;100.00
42591;BME280;28218;53.342;-6.216;2023-02-15T09:35:07;101609.50;;;9.53;100.00
42591;BME280;28218;53.342;-6.216;2023-02-15T09:37:35;101604.91;;;9.64;100.00
42591;BME280;28218;53.342;-6.216;2023-02-15T09:40:06;101621.13;;;9.79;100.00
42591;BME280;28218;53.342;-6.216;2023-02-15T09:45:34;101610.66;;;10.07;100.00
42591;BME280;28218;53.342;-6.216;2023-02-15T09:48:42;101617.69;;;10.16;100.00
42591;BME280;28218;53.342;-6.216;2023-02-15T09:51:38;101615.47;;;10.31;100.00
42591;BME280;28218;53.342;-6.216;2023-02-15T09:54:37;101623.75;;;10.45;100.00
42591;BME280;28218;53.342;-6.216;2023-02-15T09:57:19;101627.00;;;10.57;100.00
42591;BME280;28218;53.342;-6.216;2023-02-15T09:59:58;101631.66;;;10.73;100.00
42591;BME280;28218;53.342;-6.216;2023-02-15T10:02:38;101623.53;;;10.84;100.00
42591;BME280;28218;53.342;-6.216;2023-02-15T10:05:21;101629.56;;;10.94;100.00
42591;BME280;28218;53.342;-6.216;2023-02-15T10:08:07;101632.53;;;11.09;100.00
42591;BME280;28218;53.342;-6.216;2023-02-15T10:10:43;101635.09;;;11.19;100.00
42591;BME280;28218;53.342;-6.216;2023-02-15T10:13:27;101633.38;;;11.27;100.00
42591;BME280;28218;53.342;-6.216;2023-02-15T10:16:08;101632.31;;;11.38;100.00
42591;BME280;28218;53.342;-6.216;2023-02-15T10:18:48;101634.81;;;11.40;100.00
42591;BME280;28218;53.342;-6.216;2023-02-15T10:21:27;101638.00;;;11.43;100.00
42591;BME280;28218;53.342;-6.216;2023-02-15T10:24:11;101649.50;;;11.42;100.00
42591;BME280;28218;53.342;-6.216;2023-02-15T10:26:46;101659.59;;;11.29;100.00
42591;BME280;28218;53.342;-6.216;2023-02-15T10:29:24;101659.56;;;11.39;100.00
42591;BME280;28218;53.342;-6.216;2023-02-15T10:32:03;101656.38;;;11.53;100.00
42591;BME280;28218;53.342;-6.216;2023-02-15T10:34:37;101653.59;;;11.72;100.00
42591;BME280;28218;53.342;-6.216;2023-02-15T10:40:10;101655.75;;;11.95;100.00
42591;BME280;28218;53.342;-6.216;2023-02-15T10:43:03;101660.06;;;11.96;100.00
42591;BME280;28218;53.342;-6.216;2023-02-15T10:45:40;101665.19;;;11.97;100.00
42591;BME280;28218;53.342;-6.216;2023-02-15T10:48:39;101654.91;;;11.94;100.00
42591;BME280;28218;53.342;-6.216;2023-02-15T10:51:16;101659.59;;;12.00;100.00
42591;BME280;28218;53.342;-6.216;2023-02-15T10:53:59;101662.19;;;11.92;100.00
42591;BME280;28218;53.342;-6.216;2023-02-15T10:56:35;101655.53;;;11.88;100.00
42591;BME280;28218;53.342;-6.216;2023-02-15T10:59:21;101659.69;;;11.91;100.00
42591;BME280;28218;53.342;-6.216;2023-02-15T11:01:55;101662.19;;;11.92;100.00
42591;BME280;28218;53.342;-6.216;2023-02-15T11:04:48;101674.03;;;11.88;100.00
42591;BME280;28218;53.342;-6.216;2023-02-15T11:07:22;101676.44;;;11.82;100.00
42591;BME280;28218;53.342;-6.216;2023-02-15T11:09:55;101678.38;;;11.80;100.00
42591;BME280;28218;53.342;-6.216;2023-02-15T11:12:28;101681.63;;;11.73;100.00
42591;BME280;28218;53.342;-6.216;2023-02-15T11:15:02;101678.53;;;11.60;100.00
42591;BME280;28218;53.342;-6.216;2023-02-15T11:17:41;101680.81;;;11.55;100.00
42591;BME280;28218;53.342;-6.216;2023-02-15T11:20:17;101683.22;;;11.48;100.00
42591;BME280;28218;53.342;-6.216;2023-02-15T11:22:48;101691.44;;;11.45;100.00
42591;BME280;28218;53.342;-6.216;2023-02-15T11:25:19;101694.38;;;11.42;100.00
42591;BME280;28218;53.342;-6.216;2023-02-15T11:27:49;101689.53;;;11.38;100.00
42591;BME280;28218;53.342;-6.216;2023-02-15T11:30:23;101694.00;;;11.37;100.00
42591;BME280;28218;53.342;-6.216;2023-02-15T11:32:55;101686.22;;;11.36;100.00
42591;BME280;28218;53.342;-6.216;2023-02-15T11:35:28;101692.41;;;11.26;100.00
42591;BME280;28218;53.342;-6.216;2023-02-15T11:38:02;101688.94;;;11.26;100.00
42591;BME280;28218;53.342;-6.216;2023-02-15T11:40:35;101693.53;;;11.24;100.00
42591;BME280;28218;53.342;-6.216;2023-02-15T11:43:12;101690.88;;;11.24;100.00
42591;BME280;28218;53.342;-6.216;2023-02-15T11:45:43;101702.13;;;11.26;100.00
42591;BME280;28218;53.342;-6.216;2023-02-15T11:48:14;101694.88;;;11.28;100.00
42591;BME280;28218;53.342;-6.216;2023-02-15T11:50:43;101706.13;;;11.30;100.00
42591;BME280;28218;53.342;-6.216;2023-02-15T11:53:14;101702.66;;;11.30;100.00
42591;BME280;28218;53.342;-6.216;2023-02-15T11:55:44;101707.09;;;11.29;100.00
42591;BME280;28218;53.342;-6.216;2023-02-15T11:58:25;101710.72;;;11.28;100.00
42591;BME280;28218;53.342;-6.216;2023-02-15T12:01:07;101712.84;;;11.24;100.00
42591;BME280;28218;53.342;-6.216;2023-02-15T12:03:46;101712.97;;;11.23;100.00
42591;BME280;28218;53.342;-6.216;2023-02-15T12:06:28;101713.28;;;11.20;100.00
42591;BME280;28218;53.342;-6.216;2023-02-15T12:09:03;101712.75;;;11.16;100.00
42591;BME280;28218;53.342;-6.216;2023-02-15T12:11:36;101707.75;;;11.13;100.00
42591;BME280;28218;53.342;-6.216;2023-02-15T12:14:06;101715.50;;;11.15;100.00
42591;BME280;28218;53.342;-6.216;2023-02-15T12:16:42;101706.63;;;11.16;100.00
42591;BME280;28218;53.342;-6.216;2023-02-15T12:19:27;101714.41;;;11.17;100.00
42591;BME280;28218;53.342;-6.216;2023-02-15T12:21:59;101719.91;;;11.24;100.00
42591;BME280;28218;53.342;-6.216;2023-02-15T12:24:31;101704.78;;;11.26;100.00
42591;BME280;28218;53.342;-6.216;2023-02-15T12:27:02;101706.41;;;11.27;100.00
42591;BME280;28218;53.342;-6.216;2023-02-15T12:29:39;101707.09;;;11.29;100.00
42591;BME280;28218;53.342;-6.216;2023-02-15T12:32:10;101709.69;;;11.39;100.00
42591;BME280;28218;53.342;-6.216;2023-02-15T12:34:40;101708.25;;;11.44;100.00
42591;BME280;28218;53.342;-6.216;2023-02-15T12:37:16;101705.31;;;11.47;100.00
42591;BME280;28218;53.342;-6.216;2023-02-15T12:39:54;101708.72;;;11.40;100.00
42591;BME280;28218;53.342;-6.216;2023-02-15T12:42:23;101713.81;;;11.41;100.00
42591;BME280;28218;53.342;-6.216;2023-02-15T12:44:57;101717.75;;;11.37;100.00
42591;BME280;28218;53.342;-6.216;2023-02-15T12:47:26;101711.63;;;11.37;100.00
42591;BME280;28218;53.342;-6.216;2023-02-15T12:50:14;101717.53;;;11.31;100.00
42591;BME280;28218;53.342;-6.216;2023-02-15T12:52:48;101711.09;;;11.33;100.00
42591;BME280;28218;53.342;-6.216;2023-02-15T12:55:22;101716.09;;;11.36;100.00
42591;BME280;28218;53.342;-6.216;2023-02-15T12:58:08;101715.69;;;11.31;100.00
42591;BME280;28218;53.342;-6.216;2023-02-15T13:00:43;101723.34;;;11.34;100.00
42591;BME280;28218;53.342;-6.216;2023-02-15T13:03:17;101733.88;;;11.34;100.00
42591;BME280;28218;53.342;-6.216;2023-02-15T13:05:50;101719.06;;;11.23;100.00
42591;BME280;28218;53.342;-6.216;2023-02-15T13:08:21;101726.47;;;11.20;100.00
42591;BME280;28218;53.342;-6.216;2023-02-15T13:10:56;101727.53;;;11.27;100.00
42591;BME280;28218;53.342;-6.216;2023-02-15T13:13:25;101725.19;;;11.24;100.00